createdAt,value
2019-01-26T00:01:12.298Z,45.17
2019-01-26T00:03:53.723Z,43.27
2019-01-26T00:06:34.367Z,44.43
2019-01-26T00:09:14.693Z,45.07
2019-01-26T00:11:56.021Z,42.57
2019-01-26T00:14:35.470Z,44.80
2019-01-26T00:17:16.450Z,43.97
2019-01-26T00:19:57.366Z,43.03
2019-01-26T00:22:38.314Z,43.53
2019-01-26T00:25:19.269Z,42.70
2019-01-26T00:27:59.959Z,42.83
2019-01-26T00:30:41.436Z,41.80
2019-01-26T00:33:22.467Z,42.17
2019-01-26T00:36:04.161Z,37.93
2019-01-26T00:38:44.951Z,36.33
2019-01-26T00:41:25.624Z,42.87
2019-01-26T00:44:06.564Z,40.37
2019-01-26T00:46:47.579Z,42.87
2019-01-26T00:49:28.163Z,45.27
2019-01-26T00:52:09.888Z,43.93
2019-01-26T00:54:50.737Z,45.50
2019-01-26T00:57:32.134Z,44.13
2019-01-26T01:00:12.756Z,43.47
2019-01-26T01:02:54.122Z,43.17
2019-01-26T01:05:35.605Z,43.67
2019-01-26T01:08:16.701Z,44.60
2019-01-26T01:10:58.261Z,44.77
2019-01-26T01:13:39.105Z,45.43
2019-01-26T01:16:20.044Z,40.37
2019-01-26T01:19:00.655Z,45.70
2019-01-26T01:21:41.819Z,41.30
2019-01-26T01:24:23.179Z,45.63
2019-01-26T01:27:04.746Z,45.53
2019-01-26T01:29:46.122Z,44.93
2019-01-26T01:32:26.807Z,46.83
2019-01-26T01:35:07.500Z,45.27
2019-01-26T01:37:48.837Z,46.80
2019-01-26T01:40:29.344Z,43.50
2019-01-26T01:43:10.635Z,44.23
2019-01-26T01:45:51.638Z,43.10
2019-01-26T01:48:32.613Z,46.63
2019-01-26T01:51:14.079Z,46.50
2019-01-26T01:53:54.894Z,47.47
2019-01-26T01:56:35.797Z,45.97
2019-01-26T01:59:17.166Z,46.10
2019-01-26T02:01:57.210Z,44.87
2019-01-26T02:04:37.875Z,46.30
2019-01-26T02:07:18.872Z,45.13
2019-01-26T02:10:00.178Z,45.00
2019-01-26T02:12:40.839Z,48.40
2019-01-26T02:15:22.051Z,48.07
2019-01-26T02:18:01.581Z,50.07
2019-01-26T02:20:42.894Z,50.13
2019-01-26T02:23:24.385Z,48.33
2019-01-26T02:26:05.783Z,45.73
2019-01-26T02:28:47.009Z,46.57
2019-01-26T02:31:26.522Z,47.63
2019-01-26T02:34:14.940Z,45.23
2019-01-26T02:36:56.057Z,45.30
2019-01-26T02:39:37.584Z,45.33
2019-01-26T02:42:18.662Z,47.53
2019-01-26T02:44:59.757Z,46.83
2019-01-26T02:47:39.394Z,44.67
2019-01-26T02:50:27.967Z,46.23
2019-01-26T02:53:07.534Z,46.37
2019-01-26T02:58:55.750Z,47.67
2019-01-26T03:01:35.425Z,45.27
2019-01-26T03:04:16.917Z,45.97
2019-01-26T03:06:57.547Z,44.03
2019-01-26T03:09:38.983Z,46.40
2019-01-26T03:12:19.695Z,44.90
2019-01-26T03:15:01.232Z,44.30
2019-01-26T03:17:41.747Z,46.20
2019-01-26T03:20:23.104Z,45.80
2019-01-26T03:23:04.582Z,46.23
2019-01-26T03:25:44.096Z,42.87
2019-01-26T03:28:32.515Z,43.53
2019-01-26T03:31:13.529Z,44.90
2019-01-26T03:33:54.072Z,42.60
2019-01-26T03:36:35.151Z,43.30
2019-01-26T03:39:16.507Z,44.00
2019-01-26T03:41:57.554Z,41.97
2019-01-26T03:44:38.924Z,42.97
2019-01-26T03:47:20.336Z,42.07
2019-01-26T03:50:00.979Z,39.33
2019-01-26T03:52:41.655Z,41.70
2019-01-26T03:55:22.880Z,39.83
2019-01-26T03:58:03.734Z,41.50
2019-01-26T04:00:44.429Z,40.20
2019-01-26T04:03:25.796Z,39.93
2019-01-26T04:06:06.482Z,40.93
2019-01-26T04:08:47.729Z,39.43
2019-01-26T04:11:28.340Z,42.20
2019-01-26T04:14:09.699Z,41.10
2019-01-26T04:16:50.967Z,41.43
2019-01-26T04:19:32.489Z,40.17
2019-01-26T04:22:12.351Z,39.63
2019-01-26T04:24:53.637Z,39.10
2019-01-26T04:27:34.988Z,41.47
2019-01-26T04:30:16.116Z,41.33
2019-01-26T04:32:57.600Z,40.60
2019-01-26T04:35:38.891Z,40.90
2019-01-26T04:38:20.037Z,40.77
2019-01-26T04:41:01.218Z,37.20
2019-01-26T04:43:42.556Z,37.90
2019-01-26T04:46:23.723Z,39.30
2019-01-26T04:49:04.513Z,40.63
2019-01-26T04:51:45.556Z,40.50
2019-01-26T04:54:27.087Z,41.93
2019-01-26T04:57:08.155Z,40.87
2019-01-26T04:59:48.993Z,39.33
2019-01-26T05:02:29.825Z,36.27
2019-01-26T05:05:11.061Z,40.37
2019-01-26T05:07:52.346Z,37.80
2019-01-26T05:10:33.828Z,39.93
2019-01-26T05:13:15.168Z,40.07
2019-01-26T05:15:55.885Z,38.53
2019-01-26T05:18:37.338Z,40.03
2019-01-26T05:21:18.804Z,36.90
2019-01-26T05:23:59.845Z,37.83
2019-01-26T05:26:40.383Z,38.60
2019-01-26T05:29:21.031Z,37.27
2019-01-26T05:32:02.581Z,34.80
2019-01-26T05:34:43.443Z,35.77
2019-01-26T05:37:24.784Z,33.87
2019-01-26T05:40:06.172Z,35.73
2019-01-26T05:42:47.309Z,33.40
2019-01-26T05:45:28.321Z,33.37
2019-01-26T05:48:09.687Z,34.20
2019-01-26T05:50:51.058Z,34.87
2019-01-26T05:53:32.446Z,31.93
2019-01-26T05:56:13.827Z,32.43
2019-01-26T05:58:54.308Z,33.13
2019-01-26T06:01:35.891Z,32.67
2019-01-26T06:04:17.342Z,35.73
2019-01-26T06:06:58.628Z,30.63
2019-01-26T06:09:39.930Z,31.83
2019-01-26T06:12:21.408Z,34.00
2019-01-26T06:15:02.911Z,32.87
2019-01-26T06:17:44.438Z,34.13
2019-01-26T06:20:25.095Z,32.37
2019-01-26T06:23:05.916Z,31.87
2019-01-26T06:25:47.280Z,33.33
2019-01-26T06:28:28.727Z,34.20
2019-01-26T06:31:08.622Z,34.17
2019-01-26T06:33:49.757Z,35.63
2019-01-26T06:36:30.446Z,33.73
2019-01-26T06:39:11.718Z,36.00
2019-01-26T06:41:52.435Z,34.43
2019-01-26T06:44:33.017Z,33.47
2019-01-26T06:47:13.687Z,33.50
2019-01-26T06:49:54.711Z,34.03
2019-01-26T06:52:35.445Z,33.87
2019-01-26T06:55:16.674Z,34.33
2019-01-26T06:57:57.426Z,35.63
2019-01-26T07:00:38.379Z,34.53
2019-01-26T07:03:19.683Z,34.47
2019-01-26T07:09:04.738Z,34.57
2019-01-26T07:11:46.148Z,36.20
2019-01-26T07:14:27.108Z,35.90
2019-01-26T07:17:08.391Z,36.43
2019-01-26T07:19:49.810Z,34.70
2019-01-26T07:22:31.247Z,36.40
2019-01-26T07:25:12.619Z,37.00
2019-01-26T07:27:54.098Z,37.27
2019-01-26T07:30:35.122Z,35.80
2019-01-26T07:33:14.877Z,33.53
2019-01-26T07:35:56.449Z,35.80
2019-01-26T07:38:37.157Z,31.47
2019-01-26T07:41:17.832Z,32.30
2019-01-26T07:43:59.166Z,36.67
2019-01-26T07:46:40.135Z,32.83
2019-01-26T07:49:21.645Z,36.90
2019-01-26T07:52:02.865Z,36.03
2019-01-26T07:54:44.002Z,35.17
2019-01-26T07:57:24.735Z,36.07
2019-01-26T08:00:06.095Z,38.03
2019-01-26T08:02:46.793Z,38.53
2019-01-26T08:05:26.919Z,38.60
2019-01-26T08:08:07.986Z,37.87
2019-01-26T08:10:49.287Z,36.40
2019-01-26T08:13:30.469Z,37.13
2019-01-26T08:16:11.620Z,36.90
2019-01-26T08:18:52.599Z,37.13
2019-01-26T08:21:32.033Z,34.07
2019-01-26T08:24:12.854Z,35.00
2019-01-26T08:26:54.372Z,37.17
2019-01-26T08:29:35.619Z,33.80
2019-01-26T08:32:17.208Z,35.03
2019-01-26T08:34:58.349Z,36.63
2019-01-26T08:37:39.890Z,34.57
2019-01-26T08:40:21.173Z,34.07
2019-01-26T08:43:02.122Z,34.87
2019-01-26T08:45:43.325Z,33.77
2019-01-26T08:48:31.043Z,34.73
2019-01-26T08:51:07.664Z,35.70
2019-01-26T08:53:47.412Z,33.77
2019-01-26T08:56:28.373Z,32.67
2019-01-26T08:59:09.314Z,33.03
2019-01-26T09:01:52.025Z,34.37
2019-01-26T09:04:34.060Z,32.03
2019-01-26T09:07:15.437Z,31.87
2019-01-26T09:09:56.520Z,32.10
2019-01-26T09:12:38.046Z,32.03
2019-01-26T09:15:19.512Z,31.07
2019-01-26T09:18:00.275Z,31.40
2019-01-26T09:20:41.524Z,30.17
2019-01-26T09:23:22.955Z,29.47
2019-01-26T09:26:03.657Z,27.33
2019-01-26T09:28:44.518Z,26.07
2019-01-26T09:31:25.958Z,30.30
2019-01-26T09:34:07.333Z,28.93
2019-01-26T09:36:48.606Z,30.00
2019-01-26T09:39:29.243Z,30.20
2019-01-26T09:42:09.944Z,30.47
2019-01-26T09:44:50.527Z,31.13
2019-01-26T09:47:30.069Z,28.43
2019-01-26T09:50:10.912Z,31.03
2019-01-26T09:52:52.378Z,29.40
2019-01-26T09:55:33.667Z,29.03
2019-01-26T09:58:14.931Z,29.23
2019-01-26T10:00:55.650Z,30.83
2019-01-26T10:03:36.356Z,31.63
2019-01-26T10:09:16.304Z,28.63
2019-01-26T10:11:57.376Z,27.53
2019-01-26T10:14:38.638Z,29.27
2019-01-26T10:17:19.460Z,27.67
2019-01-26T10:19:49.031Z,25.90
2019-01-26T10:25:37.610Z,28.07
2019-01-26T10:28:18.938Z,26.80
2019-01-26T10:31:00.534Z,28.17
2019-01-26T10:33:49.067Z,26.83
2019-01-26T10:39:24.539Z,27.43
2019-01-26T10:42:24.058Z,25.80
2019-01-26T10:45:05.470Z,26.03
2019-01-26T10:47:45.999Z,25.87
2019-01-26T10:50:27.364Z,24.97
2019-01-26T10:53:08.596Z,25.60
2019-01-26T10:55:49.359Z,26.47
2019-01-26T10:58:30.344Z,25.33
2019-01-26T11:01:10.926Z,25.57
2019-01-26T11:03:50.893Z,26.30
2019-01-26T11:06:31.813Z,27.33
2019-01-26T11:09:13.915Z,26.67
2019-01-26T11:11:55.102Z,26.30
2019-01-26T11:14:35.816Z,25.20
2019-01-26T11:17:17.184Z,27.43
2019-01-26T11:19:58.401Z,25.87
2019-01-26T11:22:39.710Z,26.43
2019-01-26T11:25:21.097Z,25.00
2019-01-26T11:28:02.122Z,26.77
2019-01-26T11:30:43.616Z,25.77
2019-01-26T11:33:24.986Z,26.60
2019-01-26T11:36:06.780Z,25.80
2019-01-26T11:38:47.902Z,27.23
2019-01-26T11:41:28.802Z,26.47
2019-01-26T11:44:10.264Z,28.23
2019-01-26T11:46:59.657Z,26.97
2019-01-26T11:49:46.353Z,26.50
2019-01-26T11:52:27.792Z,24.97
2019-01-26T11:58:05.892Z,27.30
2019-01-26T12:01:05.688Z,28.50
2019-01-26T12:04:08.863Z,26.07
2019-01-26T12:07:11.317Z,25.63
2019-01-26T12:09:52.359Z,26.13
2019-01-26T12:12:33.003Z,26.97
2019-01-26T12:15:14.038Z,26.80
2019-01-26T12:17:55.437Z,26.03
2019-01-26T12:20:36.892Z,25.37
2019-01-26T12:23:18.065Z,28.00
2019-01-26T12:25:58.895Z,26.40
2019-01-26T12:28:40.154Z,27.70
2019-01-26T12:31:20.968Z,26.43
2019-01-26T12:34:02.544Z,27.57
2019-01-26T12:36:43.994Z,25.90
2019-01-26T12:39:25.044Z,27.07
2019-01-26T12:42:06.340Z,28.00
2019-01-26T12:44:47.175Z,28.07
2019-01-26T12:47:27.834Z,26.43
2019-01-26T12:50:09.102Z,26.77
2019-01-26T12:52:48.719Z,27.47
2019-01-26T12:58:42.464Z,28.43
2019-01-26T13:01:23.860Z,28.13
2019-01-26T13:04:04.831Z,28.77
2019-01-26T13:06:45.488Z,26.67
2019-01-26T13:09:27.022Z,28.37
2019-01-26T13:12:08.298Z,29.37
2019-01-26T13:14:49.807Z,28.40
2019-01-26T13:17:29.492Z,28.33
2019-01-26T13:20:10.637Z,27.43
2019-01-26T13:22:51.282Z,28.07
2019-01-26T13:25:32.769Z,28.97
2019-01-26T13:28:14.342Z,26.67
2019-01-26T13:30:55.801Z,27.57
2019-01-26T13:33:37.177Z,29.17
2019-01-26T13:36:18.144Z,28.13
2019-01-26T13:38:59.769Z,27.43
2019-01-26T13:41:40.786Z,29.70
2019-01-26T13:44:21.569Z,28.17
2019-01-26T13:47:02.323Z,28.60
2019-01-26T13:49:44.194Z,28.20
2019-01-26T13:52:24.995Z,28.63
2019-01-26T13:55:05.716Z,28.97
2019-01-26T13:57:46.665Z,27.97
2019-01-26T14:00:27.947Z,28.30
2019-01-26T14:03:07.987Z,30.17
2019-01-26T14:05:56.429Z,29.03
2019-01-26T14:08:37.947Z,29.77
2019-01-26T14:11:19.406Z,29.10
2019-01-26T14:14:00.619Z,28.70
2019-01-26T14:16:41.800Z,29.90
2019-01-26T14:19:21.291Z,29.77
2019-01-26T14:22:09.841Z,30.77
2019-01-26T14:24:50.829Z,27.80
2019-01-26T14:27:31.998Z,30.67
2019-01-26T14:30:12.726Z,30.30
2019-01-26T14:32:54.281Z,30.10
2019-01-26T14:35:35.303Z,28.87
2019-01-26T14:38:16.844Z,29.80
2019-01-26T14:40:58.339Z,29.93
2019-01-26T14:43:39.257Z,30.53
2019-01-26T14:46:20.610Z,29.57
2019-01-26T14:49:01.196Z,31.20
2019-01-26T14:51:40.726Z,29.93
2019-01-26T14:54:29.344Z,30.90
2019-01-26T14:57:10.280Z,31.27
2019-01-26T14:59:51.721Z,30.40
2019-01-26T15:02:32.804Z,30.40
2019-01-26T15:05:12.964Z,29.97
2019-01-26T15:07:53.832Z,26.90
2019-01-26T15:10:34.838Z,23.73
2019-01-26T15:13:15.574Z,30.80
2019-01-26T15:15:55.224Z,30.20
2019-01-26T15:18:35.889Z,31.47
2019-01-26T15:21:16.498Z,30.50
2019-01-26T15:23:57.842Z,31.90
2019-01-26T15:26:38.549Z,30.93
2019-01-26T15:29:19.271Z,29.67
2019-01-26T15:31:59.874Z,30.07
2019-01-26T15:34:39.481Z,33.20
2019-01-26T15:40:26.528Z,35.13
2019-01-26T15:46:15.297Z,32.53
2019-01-26T15:48:56.750Z,35.63
2019-01-26T15:51:38.137Z,33.20
2019-01-26T15:54:19.259Z,35.37
2019-01-26T15:57:00.472Z,32.67
2019-01-26T15:59:41.583Z,36.20
2019-01-26T16:02:23.116Z,36.40
2019-01-26T16:05:04.233Z,35.40
2019-01-26T16:07:45.789Z,34.63
2019-01-26T16:10:26.628Z,36.90
2019-01-26T16:13:07.699Z,37.87
2019-01-26T16:15:49.088Z,37.63
2019-01-26T16:18:29.751Z,38.90
2019-01-26T16:21:11.596Z,40.30
2019-01-26T16:23:52.739Z,42.37
2019-01-26T16:26:32.724Z,38.00
2019-01-26T16:29:14.070Z,38.17
2019-01-26T16:31:55.627Z,38.77
2019-01-26T16:34:36.825Z,38.57
2019-01-26T16:37:18.108Z,37.70
2019-01-26T16:39:58.980Z,42.47
2019-01-26T16:42:40.417Z,40.40
2019-01-26T16:45:22.011Z,40.33
2019-01-26T16:48:03.122Z,39.70
2019-01-26T16:50:44.396Z,41.03
2019-01-26T16:53:25.820Z,39.40
2019-01-26T16:56:06.921Z,38.60
2019-01-26T16:58:46.479Z,37.70
2019-01-26T17:01:27.192Z,39.67
2019-01-26T17:04:06.860Z,38.10
2019-01-26T17:06:48.248Z,38.67
2019-01-26T17:09:27.713Z,39.60
2019-01-26T17:12:09.081Z,38.13
2019-01-26T17:14:50.337Z,36.80
2019-01-26T17:17:31.339Z,37.00
2019-01-26T17:20:12.763Z,37.73
2019-01-26T17:22:54.127Z,38.57
2019-01-26T17:25:33.597Z,39.20
2019-01-26T17:28:14.882Z,38.87
2019-01-26T17:30:56.343Z,38.67
2019-01-26T17:33:36.929Z,38.40
2019-01-26T17:36:17.800Z,37.53
2019-01-26T17:38:59.229Z,36.17
2019-01-26T17:41:39.143Z,37.07
2019-01-26T17:44:20.526Z,38.57
2019-01-26T17:47:01.429Z,38.13
2019-01-26T17:49:42.618Z,37.87
2019-01-26T17:52:24.110Z,47.10
2019-01-26T17:55:05.067Z,45.90
2019-01-26T17:57:45.940Z,45.57
2019-01-26T18:00:45.991Z,44.17
2019-01-26T18:03:25.472Z,44.07
2019-01-26T18:06:06.777Z,43.50
2019-01-26T18:08:48.134Z,46.57
2019-01-26T18:11:29.127Z,46.10
2019-01-26T18:14:10.118Z,45.37
2019-01-26T18:16:51.275Z,48.30
2019-01-26T18:19:32.262Z,46.67
2019-01-26T18:22:11.889Z,45.47
2019-01-26T18:25:00.301Z,48.00
2019-01-26T18:27:41.456Z,49.90
2019-01-26T18:30:22.445Z,47.93
2019-01-26T18:33:03.383Z,52.87
2019-01-26T18:35:44.616Z,51.53
2019-01-26T18:38:26.026Z,52.03
2019-01-26T18:41:07.620Z,51.53
2019-01-26T18:43:48.742Z,49.30
2019-01-26T18:46:29.391Z,50.43
2019-01-26T18:49:10.004Z,50.60
2019-01-26T18:51:49.596Z,48.27
2019-01-26T18:54:30.389Z,47.23
2019-01-26T18:57:11.774Z,48.93
2019-01-26T18:59:52.405Z,47.00
2019-01-26T19:02:33.967Z,48.07
2019-01-26T19:05:14.933Z,46.87
2019-01-26T19:07:56.123Z,46.97
2019-01-26T19:10:35.691Z,49.00
2019-01-26T19:13:24.202Z,47.60
2019-01-26T19:16:05.399Z,46.10
2019-01-26T19:18:46.620Z,44.73
2019-01-26T19:21:28.228Z,39.03
2019-01-26T19:24:09.323Z,38.43
2019-01-26T19:26:50.816Z,37.40
2019-01-26T19:29:30.330Z,41.30
2019-01-26T19:32:10.030Z,37.10
2019-01-26T19:38:04.110Z,39.10
2019-01-26T19:40:45.066Z,38.43
2019-01-26T19:43:26.658Z,40.03
2019-01-26T19:46:08.122Z,39.97
2019-01-26T19:48:49.703Z,36.70
2019-01-26T19:51:31.145Z,42.43
2019-01-26T19:54:12.873Z,39.30
2019-01-26T19:56:54.148Z,41.30
2019-01-26T19:59:35.616Z,39.60
2019-01-26T20:02:17.288Z,38.43
2019-01-26T20:04:57.588Z,39.33
2019-01-26T20:10:47.021Z,39.17
2019-01-26T20:13:28.261Z,40.13
2019-01-26T20:16:09.976Z,40.87
2019-01-26T20:18:51.433Z,39.83
2019-01-26T20:21:32.913Z,42.13
2019-01-26T20:24:14.212Z,41.97
2019-01-26T20:26:55.446Z,41.20
2019-01-26T20:29:36.734Z,43.47
2019-01-26T20:32:18.130Z,41.57
2019-01-26T20:34:59.519Z,41.13
2019-01-26T20:37:39.466Z,41.33
2019-01-26T20:43:30.585Z,40.00
2019-01-26T20:46:12.171Z,39.87
2019-01-26T20:48:53.475Z,44.03
2019-01-26T20:51:34.903Z,42.60
2019-01-26T20:54:15.968Z,41.93
2019-01-26T20:56:57.184Z,40.73
2019-01-26T20:59:40.071Z,39.97
2019-01-26T21:02:21.703Z,41.20
2019-01-26T21:05:02.936Z,41.13
2019-01-26T21:07:43.883Z,40.90
2019-01-26T21:10:25.579Z,41.63
2019-01-26T21:13:07.299Z,41.10
2019-01-26T21:15:48.854Z,43.17
2019-01-26T21:18:30.374Z,41.27
2019-01-26T21:21:12.087Z,43.03
2019-01-26T21:23:53.641Z,42.20
2019-01-26T21:26:34.740Z,40.87
2019-01-26T21:29:16.078Z,41.57
2019-01-26T21:31:57.231Z,45.73
2019-01-26T21:34:38.011Z,49.73
2019-01-26T21:37:18.650Z,53.97
2019-01-26T21:39:59.961Z,57.00
2019-01-26T21:42:41.236Z,56.63
2019-01-26T21:45:22.495Z,51.63
2019-01-26T21:48:03.659Z,58.23
2019-01-26T21:50:44.283Z,59.87
2019-01-26T21:53:25.096Z,56.63
2019-01-26T21:56:05.774Z,53.50
2019-01-26T21:58:46.906Z,50.93
2019-01-26T22:01:28.397Z,46.33
2019-01-26T22:04:09.441Z,48.43
2019-01-26T22:06:50.598Z,49.53
2019-01-26T22:09:31.521Z,48.57
2019-01-26T22:12:13.061Z,53.97
2019-01-26T22:14:53.769Z,53.63
2019-01-26T22:17:35.313Z,53.53
2019-01-26T22:20:16.506Z,52.47
2019-01-26T22:22:57.699Z,53.30
2019-01-26T22:25:38.934Z,54.83
2019-01-26T22:28:20.117Z,54.07
2019-01-26T22:31:01.352Z,55.23
2019-01-26T22:33:42.617Z,53.43
2019-01-26T22:36:24.005Z,54.93
2019-01-26T22:39:05.405Z,56.03
2019-01-26T22:41:46.727Z,57.97
2019-01-26T22:44:27.931Z,56.37
2019-01-26T22:47:09.285Z,56.43
2019-01-26T22:49:50.941Z,56.23
2019-01-26T22:52:31.945Z,58.10
2019-01-26T22:55:13.194Z,60.73
2019-01-26T22:57:54.279Z,58.53
2019-01-26T23:00:54.604Z,60.17
2019-01-26T23:03:35.258Z,61.93
2019-01-26T23:06:35.926Z,65.73
2019-01-26T23:09:16.617Z,65.10
2019-01-26T23:11:58.141Z,66.60
2019-01-26T23:14:39.298Z,72.37
2019-01-26T23:17:20.443Z,69.53
2019-01-26T23:20:01.837Z,70.70
2019-01-26T23:22:43.410Z,73.80
2019-01-26T23:25:24.402Z,73.80
2019-01-26T23:28:05.730Z,64.83
2019-01-26T23:30:46.351Z,67.37
2019-01-26T23:33:27.828Z,70.60
2019-01-26T23:36:09.129Z,71.43
2019-01-26T23:38:49.858Z,74.73
2019-01-26T23:41:30.551Z,73.60
2019-01-26T23:44:10.097Z,79.30
2019-01-26T23:46:51.358Z,77.00
2019-01-26T23:49:32.133Z,73.20
2019-01-26T23:52:13.104Z,74.50
2019-01-26T23:54:53.798Z,71.30
2019-01-26T23:57:34.973Z,73.53
